createdAt,value
2023-05-18T00:01:18.582Z,4.50
2023-05-18T00:03:54.497Z,4.50
2023-05-18T00:06:28.707Z,7.10
2023-05-18T00:09:02.850Z,4.40
2023-05-18T00:11:39.653Z,4.40
2023-05-18T00:14:13.802Z,4.40
2023-05-18T00:16:49.738Z,4.30
2023-05-18T00:19:25.382Z,4.30
2023-05-18T00:21:59.529Z,4.30
2023-05-18T00:24:35.639Z,4.30
2023-05-18T00:27:11.066Z,4.30
2023-05-18T00:29:45.192Z,4.40
2023-05-18T00:32:20.877Z,4.30
2023-05-18T00:34:55.128Z,4.20
2023-05-18T00:37:29.283Z,4.20
2023-05-18T00:40:06.598Z,4.10
2023-05-18T00:42:40.952Z,4.00
2023-05-18T00:45:15.107Z,4.20
2023-05-18T00:47:50.822Z,3.90
2023-05-18T00:50:25.054Z,4.00
2023-05-18T00:52:59.396Z,4.00
2023-05-18T00:55:33.760Z,4.90
2023-05-18T00:58:08.090Z,3.90
2023-05-18T01:00:42.266Z,3.80
2023-05-18T01:03:20.242Z,3.80
2023-05-18T01:05:55.748Z,3.80
2023-05-18T01:08:30.157Z,3.80
2023-05-18T01:11:13.120Z,3.80
2023-05-18T01:13:57.509Z,3.70
2023-05-18T01:16:37.351Z,3.60
2023-05-18T01:19:45.424Z,3.60
2023-05-18T01:22:34.820Z,3.60
2023-05-18T01:25:20.462Z,3.60
2023-05-18T01:27:57.138Z,3.60
2023-05-18T01:30:31.393Z,3.60
2023-05-18T01:33:09.701Z,3.50
2023-05-18T01:35:48.285Z,3.50
2023-05-18T01:38:25.509Z,4.90
2023-05-18T01:41:12.621Z,3.50
2023-05-18T01:44:00.344Z,3.40
2023-05-18T01:46:42.283Z,3.40
2023-05-18T01:49:23.594Z,3.50
2023-05-18T01:52:03.413Z,3.40
2023-05-18T01:54:40.451Z,3.30
2023-05-18T01:57:14.745Z,3.20
2023-05-18T01:59:51.225Z,3.20
2023-05-18T02:02:25.734Z,3.10
2023-05-18T02:04:59.860Z,3.20
2023-05-18T02:07:34.056Z,3.20
2023-05-18T02:10:09.693Z,3.10
2023-05-18T02:12:43.832Z,3.10
2023-05-18T02:15:19.859Z,3.10
2023-05-18T02:17:58.126Z,3.10
2023-05-18T02:20:33.696Z,3.10
2023-05-18T02:23:07.907Z,3.00
2023-05-18T02:25:42.006Z,3.10
2023-05-18T02:28:16.280Z,3.20
2023-05-18T02:30:51.737Z,3.20
2023-05-18T02:33:26.756Z,3.10
2023-05-18T02:36:01.045Z,3.00
2023-05-18T02:38:38.566Z,2.90
2023-05-18T02:41:12.922Z,2.90
2023-05-18T02:43:47.128Z,2.90
2023-05-18T02:46:22.738Z,2.90
2023-05-18T02:48:56.951Z,2.90
2023-05-18T02:51:31.504Z,2.90
2023-05-18T02:54:05.958Z,2.80
2023-05-18T02:56:41.711Z,2.80
2023-05-18T02:59:16.099Z,2.70
2023-05-18T03:01:51.640Z,2.70
2023-05-18T03:04:26.405Z,2.70
2023-05-18T03:07:02.926Z,4.30
2023-05-18T03:09:37.384Z,2.70
2023-05-18T03:12:11.714Z,2.60
2023-05-18T03:14:46.001Z,2.60
2023-05-18T03:17:21.527Z,2.60
2023-05-18T03:19:55.698Z,2.60
2023-05-18T03:22:29.862Z,2.40
2023-05-18T03:25:04.601Z,2.50
2023-05-18T03:27:38.767Z,2.40
2023-05-18T03:30:13.402Z,2.50
2023-05-18T03:32:49.551Z,2.40
2023-05-18T03:35:23.889Z,2.40
2023-05-18T03:37:58.015Z,2.60
2023-05-18T03:40:32.328Z,2.60
2023-05-18T03:43:06.476Z,2.50
2023-05-18T03:45:40.723Z,2.40
2023-05-18T03:48:16.412Z,2.50
2023-05-18T03:50:50.658Z,2.50
2023-05-18T03:53:24.743Z,2.50
2023-05-18T03:55:58.812Z,2.50
2023-05-18T03:58:33.125Z,2.40
2023-05-18T04:01:08.250Z,2.50
2023-05-18T04:03:43.908Z,2.40
2023-05-18T04:06:18.385Z,2.40
2023-05-18T04:08:52.914Z,2.50
2023-05-18T04:11:27.140Z,2.60
2023-05-18T04:14:01.954Z,2.50
2023-05-18T04:16:36.407Z,2.40
2023-05-18T04:19:12.054Z,2.40
2023-05-18T04:21:47.561Z,2.40
2023-05-18T04:24:22.700Z,2.40
2023-05-18T04:26:59.479Z,2.50
2023-05-18T04:29:33.617Z,2.50
2023-05-18T04:32:08.747Z,2.60
2023-05-18T04:34:44.472Z,2.60
2023-05-18T04:37:19.020Z,2.70
2023-05-18T04:39:54.081Z,2.80
2023-05-18T04:42:28.334Z,2.90
2023-05-18T04:45:03.104Z,3.00
2023-05-18T04:47:38.683Z,3.10
2023-05-18T04:50:15.947Z,3.30
2023-05-18T04:52:52.065Z,3.30
2023-05-18T04:55:27.636Z,3.50
2023-05-18T04:58:03.126Z,3.70
2023-05-18T05:00:37.629Z,3.70
2023-05-18T05:03:11.861Z,3.80
2023-05-18T05:05:47.350Z,3.90
2023-05-18T05:08:21.659Z,5.00
2023-05-18T05:10:55.741Z,4.10
2023-05-18T05:13:29.891Z,3.00
2023-05-18T05:16:04.053Z,4.30
2023-05-18T05:18:38.296Z,4.30
2023-05-18T05:21:13.751Z,2.70
2023-05-18T05:23:47.868Z,4.60
2023-05-18T05:26:22.531Z,4.90
2023-05-18T05:28:56.691Z,5.00
2023-05-18T05:31:30.891Z,5.10
2023-05-18T05:34:05.134Z,5.20
2023-05-18T05:36:40.634Z,5.40
2023-05-18T05:39:14.817Z,5.50
2023-05-18T05:41:49.043Z,5.70
2023-05-18T05:44:23.188Z,5.90
2023-05-18T05:46:57.271Z,6.00
2023-05-18T05:49:31.653Z,6.10
2023-05-18T05:52:08.172Z,6.10
2023-05-18T05:54:42.905Z,6.30
2023-05-18T05:57:17.026Z,7.20
2023-05-18T05:59:51.194Z,6.60
2023-05-18T06:02:25.481Z,6.80
2023-05-18T06:04:59.659Z,7.00
2023-05-18T06:07:35.326Z,7.20
2023-05-18T06:10:10.036Z,7.50
2023-05-18T06:12:44.270Z,7.70
2023-05-18T06:15:19.884Z,8.00
2023-05-18T06:17:54.063Z,8.20
2023-05-18T06:20:28.431Z,8.30
2023-05-18T06:23:03.889Z,8.40
2023-05-18T06:25:38.157Z,8.60
2023-05-18T06:28:12.672Z,8.70
2023-05-18T06:30:46.890Z,8.80
2023-05-18T06:33:23.602Z,9.00
2023-05-18T06:35:57.791Z,9.10
2023-05-18T06:38:33.390Z,9.20
2023-05-18T06:41:07.522Z,9.40
2023-05-18T06:43:41.710Z,9.60
2023-05-18T06:46:21.935Z,9.70
2023-05-18T06:48:56.643Z,10.10
2023-05-18T06:51:31.226Z,11.00
2023-05-18T06:54:06.905Z,9.90
2023-05-18T06:56:41.621Z,10.00
2023-05-18T06:59:15.808Z,11.30
2023-05-18T07:01:50.006Z,10.30
2023-05-18T07:04:24.198Z,10.50
2023-05-18T07:06:58.411Z,10.70
2023-05-18T07:09:33.974Z,9.40
2023-05-18T07:12:09.253Z,10.70
2023-05-18T07:14:43.411Z,11.10
2023-05-18T07:17:17.613Z,11.50
2023-05-18T07:19:51.781Z,11.30
2023-05-18T07:22:26.072Z,11.80
2023-05-18T07:25:01.781Z,11.60
2023-05-18T07:27:35.919Z,11.80
2023-05-18T07:30:11.484Z,11.90
2023-05-18T07:32:45.876Z,12.00
2023-05-18T07:35:21.612Z,12.10
2023-05-18T07:37:55.947Z,12.30
2023-05-18T07:40:31.419Z,12.40
2023-05-18T07:43:05.521Z,9.80
2023-05-18T07:45:39.682Z,12.70
2023-05-18T07:48:13.878Z,13.30
2023-05-18T07:50:48.061Z,12.90
2023-05-18T07:53:22.317Z,12.90
2023-05-18T07:55:57.790Z,13.00
2023-05-18T07:58:32.006Z,13.10
2023-05-18T08:01:06.348Z,13.30
2023-05-18T08:03:40.610Z,13.30
2023-05-18T08:06:14.774Z,13.40
2023-05-18T08:08:49.100Z,13.50
2023-05-18T08:11:24.978Z,14.00
2023-05-18T08:13:59.132Z,13.70
2023-05-18T08:16:37.233Z,13.80
2023-05-18T08:19:11.703Z,13.90
2023-05-18T08:21:46.422Z,14.90
2023-05-18T08:24:20.899Z,16.00
2023-05-18T08:26:57.415Z,14.30
2023-05-18T08:29:31.745Z,14.40
2023-05-18T08:32:08.210Z,14.50
2023-05-18T08:34:42.833Z,14.60
2023-05-18T08:37:17.000Z,14.60
2023-05-18T08:39:51.960Z,15.40
2023-05-18T08:42:48.715Z,14.90
2023-05-18T08:45:33.962Z,14.90
2023-05-18T08:48:09.463Z,15.10
2023-05-18T08:50:45.620Z,13.60
2023-05-18T08:53:21.498Z,15.20
2023-05-18T08:55:56.511Z,15.10
2023-05-18T08:58:45.202Z,16.10
2023-05-18T09:01:19.658Z,15.20
2023-05-18T09:03:53.916Z,15.70
2023-05-18T09:06:29.704Z,15.70
2023-05-18T09:09:06.545Z,17.50
2023-05-18T09:11:41.228Z,16.10
2023-05-18T09:14:16.770Z,16.30
2023-05-18T09:16:50.969Z,16.60
2023-05-18T09:19:25.741Z,16.70
2023-05-18T09:21:59.988Z,16.60
2023-05-18T09:24:34.655Z,16.50
2023-05-18T09:27:09.132Z,16.60
2023-05-18T09:29:56.169Z,16.40
2023-05-18T09:32:30.692Z,19.50
2023-05-18T09:35:09.310Z,16.60
2023-05-18T09:37:44.179Z,16.70
2023-05-18T09:40:19.611Z,16.80
2023-05-18T09:42:56.291Z,16.80
2023-05-18T09:45:32.024Z,16.80
2023-05-18T09:48:09.124Z,16.70
2023-05-18T09:50:45.225Z,16.60
2023-05-18T09:53:19.523Z,16.50
2023-05-18T09:55:53.737Z,16.50
2023-05-18T09:58:32.797Z,16.80
2023-05-18T10:01:08.461Z,16.60
2023-05-18T10:03:45.267Z,16.80
2023-05-18T10:06:21.382Z,17.00
2023-05-18T10:08:58.632Z,16.80
2023-05-18T10:11:34.208Z,17.00
2023-05-18T10:14:08.806Z,15.50
2023-05-18T10:16:45.580Z,17.30
2023-05-18T10:19:20.761Z,17.30
2023-05-18T10:21:55.759Z,17.40
2023-05-18T10:24:31.002Z,17.40
2023-05-18T10:27:09.743Z,17.30
2023-05-18T10:29:45.125Z,17.40
2023-05-18T10:32:24.309Z,17.50
2023-05-18T10:34:58.589Z,17.40
2023-05-18T10:37:36.727Z,17.40
2023-05-18T10:40:13.414Z,17.50
2023-05-18T10:42:48.154Z,17.50
2023-05-18T10:45:22.710Z,17.50
2023-05-18T10:48:01.380Z,17.50
2023-05-18T10:50:38.765Z,17.50
2023-05-18T10:53:15.199Z,17.50
2023-05-18T10:55:50.277Z,17.80
2023-05-18T10:58:28.292Z,18.10
2023-05-18T11:01:06.792Z,18.30
2023-05-18T11:03:42.449Z,18.30
2023-05-18T11:06:24.957Z,18.40
2023-05-18T11:09:00.350Z,18.50
2023-05-18T11:11:53.210Z,18.50
2023-05-18T11:14:29.248Z,18.60
2023-05-18T11:17:23.328Z,18.60
2023-05-18T11:20:18.546Z,18.60
2023-05-18T11:23:02.597Z,18.80
2023-05-18T11:25:46.739Z,19.00
2023-05-18T11:28:23.855Z,18.90
2023-05-18T11:30:58.211Z,18.70
2023-05-18T11:33:32.490Z,18.70
2023-05-18T11:36:13.511Z,18.80
2023-05-18T11:38:52.299Z,18.80
2023-05-18T11:41:34.990Z,19.10
2023-05-18T11:44:19.869Z,19.00
2023-05-18T11:47:06.975Z,19.00
2023-05-18T11:49:46.505Z,19.10
2023-05-18T11:52:23.815Z,18.80
2023-05-18T11:54:59.967Z,18.90
2023-05-18T11:57:45.200Z,19.10
2023-05-18T12:00:21.295Z,19.50
2023-05-18T12:02:58.479Z,19.30
2023-05-18T12:05:34.274Z,19.00
2023-05-18T12:08:10.958Z,19.00
2023-05-18T12:10:46.891Z,18.90
2023-05-18T12:13:21.680Z,18.80
2023-05-18T12:15:59.015Z,18.60
2023-05-18T12:18:36.264Z,18.70
2023-05-18T12:21:10.512Z,20.80
2023-05-18T12:23:46.124Z,20.40
2023-05-18T12:26:22.746Z,19.30
2023-05-18T12:28:57.466Z,19.30
2023-05-18T12:31:34.827Z,19.40
2023-05-18T12:34:15.774Z,20.70
2023-05-18T12:36:54.595Z,19.40
2023-05-18T12:39:37.964Z,19.30
2023-05-18T12:42:17.368Z,19.30
2023-05-18T12:44:53.904Z,19.20
2023-05-18T12:47:35.389Z,19.30
2023-05-18T12:50:11.149Z,19.20
2023-05-18T12:52:45.842Z,19.10
2023-05-18T12:55:27.325Z,19.10
2023-05-18T12:58:08.083Z,18.90
2023-05-18T13:00:47.729Z,18.80
2023-05-18T13:03:38.104Z,18.90
2023-05-18T13:06:17.089Z,19.30
2023-05-18T13:08:57.460Z,19.80
2023-05-18T13:11:33.160Z,20.60
2023-05-18T13:14:12.820Z,19.90
2023-05-18T13:16:47.273Z,19.40
2023-05-18T13:19:24.314Z,19.00
2023-05-18T13:21:59.266Z,18.90
2023-05-18T13:24:34.049Z,19.00
2023-05-18T13:27:12.240Z,19.20
2023-05-18T13:29:48.587Z,19.30
2023-05-18T13:32:22.755Z,19.30
2023-05-18T13:34:58.719Z,19.20
2023-05-18T13:37:35.842Z,19.10
2023-05-18T13:40:25.693Z,19.10
2023-05-18T13:43:01.486Z,19.30
2023-05-18T13:45:37.205Z,19.40
2023-05-18T13:48:14.643Z,19.30
2023-05-18T13:50:49.003Z,19.70
2023-05-18T13:53:23.439Z,19.50
2023-05-18T13:55:57.742Z,22.10
2023-05-18T13:58:36.146Z,19.70
2023-05-18T14:01:13.385Z,19.70
2023-05-18T14:03:48.198Z,20.70
2023-05-18T14:06:23.247Z,19.30
2023-05-18T14:08:57.543Z,19.10
2023-05-18T14:11:38.413Z,19.00
2023-05-18T14:14:14.226Z,21.70
2023-05-18T14:16:48.596Z,18.90
2023-05-18T14:19:26.358Z,19.10
2023-05-18T14:22:02.954Z,19.20
2023-05-18T14:24:37.207Z,19.10
2023-05-18T14:27:11.538Z,20.00
2023-05-18T14:29:49.851Z,18.70
2023-05-18T14:32:24.268Z,19.40
2023-05-18T14:35:00.424Z,18.50
2023-05-18T14:37:36.230Z,18.40
2023-05-18T14:40:11.543Z,19.20
2023-05-18T14:42:45.809Z,18.40
2023-05-18T14:45:21.565Z,18.40
2023-05-18T14:48:01.772Z,18.40
2023-05-18T14:50:38.728Z,18.30
2023-05-18T14:53:13.486Z,18.20
2023-05-18T14:55:48.317Z,18.10
2023-05-18T14:58:22.960Z,18.10
2023-05-18T15:01:01.819Z,18.00
2023-05-18T15:03:36.239Z,17.90
2023-05-18T15:06:10.847Z,17.90
2023-05-18T15:08:45.564Z,17.90
2023-05-18T15:11:20.296Z,18.10
2023-05-18T15:13:54.661Z,17.80
2023-05-18T15:16:30.733Z,17.70
2023-05-18T15:19:05.687Z,17.70
2023-05-18T15:21:44.774Z,17.60
2023-05-18T15:24:22.089Z,17.50
2023-05-18T15:26:56.657Z,17.50
2023-05-18T15:29:31.113Z,17.40
2023-05-18T15:32:08.364Z,18.80
2023-05-18T15:34:42.919Z,17.30
2023-05-18T15:37:17.102Z,17.40
2023-05-18T15:39:53.800Z,17.20
2023-05-18T15:42:31.205Z,17.10
2023-05-18T15:45:06.446Z,17.20
2023-05-18T15:47:42.429Z,17.20
2023-05-18T15:50:24.113Z,18.20
2023-05-18T15:53:03.626Z,17.50
2023-05-18T15:55:40.556Z,17.50
2023-05-18T15:58:16.083Z,17.50
2023-05-18T16:00:50.283Z,17.50
2023-05-18T16:03:28.313Z,18.80
2023-05-18T16:06:07.118Z,18.30
2023-05-18T16:08:41.361Z,17.20
2023-05-18T16:11:15.665Z,17.10
2023-05-18T16:13:50.402Z,17.10
2023-05-18T16:16:30.661Z,17.00
2023-05-18T16:19:07.309Z,16.90
2023-05-18T16:21:46.992Z,17.00
2023-05-18T16:24:21.155Z,17.20
2023-05-18T16:26:55.516Z,16.90
2023-05-18T16:29:29.995Z,16.90
2023-05-18T16:32:08.332Z,16.90
2023-05-18T16:34:44.316Z,17.00
2023-05-18T16:37:18.755Z,17.50
2023-05-18T16:39:55.969Z,17.00
2023-05-18T16:42:37.468Z,17.00
2023-05-18T16:45:14.862Z,16.90
2023-05-18T16:47:49.154Z,16.80
2023-05-18T16:50:25.402Z,16.70
2023-05-18T16:53:01.788Z,15.10
2023-05-18T16:55:36.481Z,16.50
2023-05-18T16:58:11.131Z,16.50
2023-05-18T17:00:47.721Z,16.40
2023-05-18T17:03:22.548Z,16.40
2023-05-18T17:05:58.279Z,16.40
2023-05-18T17:08:34.774Z,16.30
2023-05-18T17:11:09.099Z,16.30
2023-05-18T17:13:44.428Z,16.20
2023-05-18T17:16:22.317Z,16.30
2023-05-18T17:19:01.513Z,16.30
2023-05-18T17:21:37.239Z,16.30
2023-05-18T17:24:14.569Z,17.30
2023-05-18T17:26:48.990Z,16.30
2023-05-18T17:29:26.088Z,16.30
2023-05-18T17:32:07.307Z,19.10
2023-05-18T17:34:41.553Z,16.20
2023-05-18T17:37:19.261Z,13.80
2023-05-18T17:39:57.043Z,16.10
2023-05-18T17:42:34.545Z,16.10
2023-05-18T17:45:12.285Z,16.00
2023-05-18T17:47:49.506Z,15.90
2023-05-18T17:50:26.569Z,15.80
2023-05-18T17:53:07.587Z,15.80
2023-05-18T17:55:42.534Z,15.80
2023-05-18T17:58:28.432Z,14.80
2023-05-18T18:01:09.191Z,15.60
2023-05-18T18:03:46.305Z,15.60
2023-05-18T18:06:24.833Z,15.60
2023-05-18T18:09:09.342Z,15.50
2023-05-18T18:11:49.086Z,15.50
2023-05-18T18:14:23.301Z,15.40
2023-05-18T18:16:59.715Z,16.60
2023-05-18T18:19:35.841Z,15.30
2023-05-18T18:22:10.020Z,15.30
2023-05-18T18:24:45.954Z,15.20
2023-05-18T18:27:22.388Z,16.30
2023-05-18T18:29:56.873Z,17.20
2023-05-18T18:32:34.107Z,15.10
2023-05-18T18:35:09.334Z,16.20
2023-05-18T18:37:45.824Z,15.00
2023-05-18T18:40:37.841Z,15.00
2023-05-18T18:43:12.165Z,14.90
2023-05-18T18:45:48.644Z,16.70
2023-05-18T18:48:22.997Z,14.80
2023-05-18T18:50:57.344Z,14.80
2023-05-18T18:53:33.317Z,14.80
2023-05-18T18:56:09.759Z,14.80
2023-05-18T18:58:45.224Z,14.30
2023-05-18T19:01:19.677Z,14.80
2023-05-18T19:03:53.921Z,14.70
2023-05-18T19:06:31.501Z,14.70
2023-05-18T19:09:05.865Z,14.70
2023-05-18T19:11:43.955Z,14.70
2023-05-18T19:14:18.255Z,14.70
2023-05-18T19:16:52.427Z,14.60
2023-05-18T19:19:29.301Z,14.60
2023-05-18T19:22:06.904Z,14.60
2023-05-18T19:24:49.287Z,14.90
2023-05-18T19:27:26.992Z,14.50
2023-05-18T19:30:07.405Z,15.40
2023-05-18T19:32:48.904Z,14.40
2023-05-18T19:35:25.029Z,14.40
2023-05-18T19:38:00.483Z,14.50
2023-05-18T19:40:37.909Z,14.40
2023-05-18T19:43:17.154Z,14.30
2023-05-18T19:45:51.702Z,14.30
2023-05-18T19:48:26.519Z,14.30
2023-05-18T19:51:04.116Z,14.20
2023-05-18T19:53:38.496Z,14.20
2023-05-18T19:56:12.881Z,14.20
2023-05-18T19:58:48.354Z,14.20
2023-05-18T20:01:27.969Z,14.20
2023-05-18T20:04:02.261Z,14.10
2023-05-18T20:06:38.817Z,14.00
2023-05-18T20:09:15.842Z,14.00
2023-05-18T20:11:57.621Z,14.30
2023-05-18T20:14:39.211Z,13.90
2023-05-18T20:17:13.986Z,13.90
2023-05-18T20:19:50.921Z,13.80
2023-05-18T20:22:25.052Z,13.90
2023-05-18T20:25:01.321Z,13.80
2023-05-18T20:27:38.562Z,13.80
2023-05-18T20:30:18.238Z,13.70
2023-05-18T20:32:54.504Z,13.70
2023-05-18T20:35:28.739Z,13.60
2023-05-18T20:38:04.598Z,13.70
2023-05-18T20:40:39.375Z,13.60
2023-05-18T20:43:18.701Z,13.60
2023-05-18T20:45:57.118Z,13.60
2023-05-18T20:48:31.909Z,13.60
2023-05-18T20:51:15.044Z,13.60
2023-05-18T20:53:49.418Z,13.50
2023-05-18T20:56:34.326Z,13.50
2023-05-18T20:59:16.649Z,13.50
2023-05-18T21:01:52.738Z,13.40
2023-05-18T21:04:27.176Z,13.40
2023-05-18T21:07:01.720Z,13.40
2023-05-18T21:09:35.942Z,13.40
2023-05-18T21:12:13.315Z,13.40
2023-05-18T21:14:56.474Z,13.40
2023-05-18T21:17:37.540Z,13.40
2023-05-18T21:20:14.899Z,13.30
2023-05-18T21:22:49.089Z,13.30
2023-05-18T21:25:29.146Z,13.30
2023-05-18T21:28:03.478Z,13.50
2023-05-18T21:30:38.252Z,13.30
2023-05-18T21:33:17.452Z,13.20
2023-05-18T21:36:00.479Z,13.20
2023-05-18T21:38:37.653Z,13.20
2023-05-18T21:41:13.910Z,13.10
2023-05-18T21:43:50.621Z,13.10
2023-05-18T21:46:31.148Z,13.10
2023-05-18T21:49:08.302Z,13.10
2023-05-18T21:51:44.646Z,13.20
2023-05-18T21:54:21.572Z,13.20
2023-05-18T21:56:56.251Z,13.70
2023-05-18T21:59:30.500Z,13.20
2023-05-18T22:02:04.759Z,13.10
2023-05-18T22:04:40.466Z,13.10
2023-05-18T22:07:17.846Z,13.10
2023-05-18T22:09:56.236Z,13.00
2023-05-18T22:12:30.639Z,13.90
2023-05-18T22:15:05.342Z,13.00
2023-05-18T22:17:42.361Z,13.00
2023-05-18T22:20:21.533Z,13.00
2023-05-18T22:23:03.352Z,13.00
2023-05-18T22:25:37.989Z,13.00
2023-05-18T22:28:12.563Z,13.00
2023-05-18T22:30:49.335Z,12.90
2023-05-18T22:33:23.574Z,12.90
2023-05-18T22:35:59.414Z,12.90
2023-05-18T22:38:36.734Z,12.90
2023-05-18T22:41:11.383Z,12.90
2023-05-18T22:43:45.873Z,14.60
2023-05-18T22:46:20.735Z,13.00
2023-05-18T22:48:55.015Z,13.80
2023-05-18T22:51:33.980Z,12.80
2023-05-18T22:54:13.572Z,12.80
2023-05-18T22:56:47.683Z,12.90
2023-05-18T22:59:25.548Z,12.80
2023-05-18T23:01:59.690Z,12.80
2023-05-18T23:04:37.032Z,12.80
2023-05-18T23:07:15.153Z,15.20
2023-05-18T23:09:49.323Z,12.80
2023-05-18T23:12:23.658Z,12.80
2023-05-18T23:14:58.475Z,13.50
2023-05-18T23:17:38.976Z,12.80
2023-05-18T23:20:14.089Z,12.70
2023-05-18T23:22:52.958Z,12.60
2023-05-18T23:25:27.179Z,12.60
2023-05-18T23:28:03.202Z,12.80
2023-05-18T23:30:39.976Z,12.90
2023-05-18T23:33:24.221Z,13.40
2023-05-18T23:36:06.100Z,12.60
2023-05-18T23:38:44.693Z,12.60
2023-05-18T23:41:24.879Z,12.50
2023-05-18T23:44:00.796Z,12.50
2023-05-18T23:46:36.258Z,12.40
2023-05-18T23:49:11.377Z,12.30
2023-05-18T23:51:47.474Z,12.30
2023-05-18T23:54:23.812Z,12.20
2023-05-18T23:57:14.412Z,12.30
2023-05-18T23:59:48.645Z,12.30
